createdAt,value
2022-10-22T00:01:12.794Z,11.72
2022-10-22T00:03:40.035Z,11.74
2022-10-22T00:06:07.337Z,11.72
2022-10-22T00:08:34.102Z,11.70
2022-10-22T00:11:17.678Z,11.64
2022-10-22T00:13:44.559Z,11.60
2022-10-22T00:16:11.545Z,11.58
2022-10-22T00:18:38.800Z,11.57
2022-10-22T00:21:06.557Z,11.56
2022-10-22T00:23:34.309Z,11.51
2022-10-22T00:26:01.159Z,11.48
2022-10-22T00:28:28.060Z,11.45
2022-10-22T00:30:59.833Z,11.42
2022-10-22T00:33:27.986Z,11.41
2022-10-22T00:35:54.926Z,11.40
2022-10-22T00:38:22.091Z,11.38
2022-10-22T00:40:48.974Z,11.38
2022-10-22T00:43:19.478Z,11.39
2022-10-22T00:45:46.437Z,11.41
2022-10-22T00:48:23.318Z,11.45
2022-10-22T00:50:56.730Z,11.50
2022-10-22T00:53:29.321Z,11.52
2022-10-22T00:55:56.561Z,11.54
2022-10-22T00:58:26.491Z,11.57
2022-10-22T01:00:53.918Z,11.58
2022-10-22T01:03:20.988Z,11.58
2022-10-22T01:05:58.443Z,11.57
2022-10-22T01:08:49.014Z,11.57
2022-10-22T01:11:35.959Z,11.57
2022-10-22T01:14:12.186Z,11.59
2022-10-22T01:17:10.832Z,11.59
2022-10-22T01:19:56.225Z,11.61
2022-10-22T01:22:34.393Z,11.57
2022-10-22T01:25:22.307Z,11.58
2022-10-22T01:28:06.474Z,11.57
2022-10-22T01:30:36.061Z,11.57
2022-10-22T01:33:06.805Z,11.59
2022-10-22T01:35:39.129Z,11.60
2022-10-22T01:38:11.095Z,11.63
2022-10-22T01:40:38.402Z,11.58
2022-10-22T01:43:08.612Z,11.59
2022-10-22T01:45:45.871Z,11.59
2022-10-22T01:48:34.381Z,11.58
2022-10-22T01:51:19.406Z,11.57
2022-10-22T01:54:16.565Z,11.56
2022-10-22T01:57:08.015Z,11.53
2022-10-22T01:59:48.612Z,11.54
2022-10-22T02:02:44.992Z,11.52
2022-10-22T02:05:28.896Z,11.51
2022-10-22T02:08:08.179Z,11.50
2022-10-22T02:10:39.080Z,11.49
2022-10-22T02:13:10.640Z,11.48
2022-10-22T02:15:40.161Z,11.47
2022-10-22T02:18:09.869Z,11.42
2022-10-22T02:20:39.048Z,11.41
2022-10-22T02:23:06.091Z,11.40
2022-10-22T02:25:36.986Z,11.38
2022-10-22T02:28:34.705Z,11.36
2022-10-22T02:31:08.286Z,11.37
2022-10-22T02:33:41.386Z,11.35
2022-10-22T02:36:09.199Z,11.32
2022-10-22T02:38:37.234Z,11.29
2022-10-22T02:41:05.063Z,11.27
2022-10-22T02:43:43.343Z,11.26
2022-10-22T02:46:11.679Z,11.21
2022-10-22T02:48:38.689Z,11.20
2022-10-22T02:51:05.690Z,11.20
2022-10-22T02:53:32.735Z,11.20
2022-10-22T02:56:00.454Z,11.18
2022-10-22T02:58:27.287Z,11.17
2022-10-22T03:00:54.166Z,11.11
2022-10-22T03:03:21.008Z,11.10
2022-10-22T03:05:47.856Z,11.10
2022-10-22T03:08:14.659Z,11.09
2022-10-22T03:10:41.539Z,11.09
2022-10-22T03:13:08.339Z,11.08
2022-10-22T03:15:35.213Z,11.07
2022-10-22T03:18:02.066Z,11.07
2022-10-22T03:20:28.897Z,11.06
2022-10-22T03:22:57.015Z,11.04
2022-10-22T03:25:27.474Z,11.05
2022-10-22T03:27:58.116Z,11.08
2022-10-22T03:30:24.950Z,11.06
2022-10-22T03:32:51.709Z,11.08
2022-10-22T03:35:18.431Z,11.06
2022-10-22T03:37:45.313Z,11.12
2022-10-22T03:40:13.070Z,11.13
2022-10-22T03:42:41.508Z,11.15
2022-10-22T03:45:09.064Z,11.16
2022-10-22T03:47:37.588Z,11.17
2022-10-22T03:50:06.129Z,11.21
2022-10-22T03:52:38.532Z,11.24
2022-10-22T03:55:06.705Z,11.27
2022-10-22T03:57:33.559Z,11.29
2022-10-22T04:00:00.307Z,11.31
2022-10-22T04:02:27.067Z,11.30
2022-10-22T04:04:53.820Z,11.30
2022-10-22T04:07:20.582Z,11.30
2022-10-22T04:09:47.363Z,11.32
2022-10-22T04:12:14.173Z,11.31
2022-10-22T04:14:40.995Z,11.32
2022-10-22T04:17:07.732Z,11.30
2022-10-22T04:19:34.598Z,11.31
2022-10-22T04:22:01.688Z,11.29
2022-10-22T04:24:31.085Z,11.30
2022-10-22T04:26:58.660Z,11.30
2022-10-22T04:29:26.033Z,11.29
2022-10-22T04:31:52.994Z,11.28
2022-10-22T04:34:19.838Z,11.26
2022-10-22T04:36:46.675Z,11.27
2022-10-22T04:39:13.458Z,11.29
2022-10-22T04:41:40.331Z,11.30
2022-10-22T04:44:11.051Z,11.32
2022-10-22T04:46:42.938Z,11.32
2022-10-22T04:49:09.794Z,11.32
2022-10-22T04:51:36.637Z,11.36
2022-10-22T04:54:03.488Z,11.36
2022-10-22T04:56:31.824Z,11.38
2022-10-22T04:59:01.801Z,11.39
2022-10-22T05:01:37.078Z,11.39
2022-10-22T05:04:09.305Z,11.40
2022-10-22T05:06:36.888Z,11.40
2022-10-22T05:09:11.031Z,11.40
2022-10-22T05:11:41.813Z,11.40
2022-10-22T05:14:10.283Z,11.41
2022-10-22T05:16:38.431Z,11.41
2022-10-22T05:19:06.695Z,11.40
2022-10-22T05:21:34.368Z,11.40
2022-10-22T05:24:01.241Z,11.38
2022-10-22T05:26:29.438Z,11.37
2022-10-22T05:28:56.986Z,11.35
2022-10-22T05:31:23.895Z,11.34
2022-10-22T05:33:50.776Z,11.33
2022-10-22T05:36:20.264Z,11.30
2022-10-22T05:38:47.470Z,11.27
2022-10-22T05:41:18.152Z,11.25
2022-10-22T05:43:45.262Z,11.24
2022-10-22T05:46:18.679Z,11.24
2022-10-22T05:49:02.685Z,11.23
2022-10-22T05:51:31.946Z,11.23
2022-10-22T05:54:05.329Z,11.20
2022-10-22T05:56:32.626Z,11.19
2022-10-22T05:58:59.751Z,11.17
2022-10-22T06:01:30.284Z,11.16
2022-10-22T06:04:00.211Z,11.14
2022-10-22T06:06:51.207Z,11.15
2022-10-22T06:09:27.948Z,11.16
2022-10-22T06:11:56.047Z,11.18
2022-10-22T06:14:23.694Z,11.17
2022-10-22T06:16:51.413Z,11.17
2022-10-22T06:19:20.656Z,11.18
2022-10-22T06:21:48.198Z,11.17
2022-10-22T06:24:16.285Z,11.16
2022-10-22T06:26:43.130Z,11.14
2022-10-22T06:29:10.452Z,11.17
2022-10-22T06:31:37.403Z,11.14
2022-10-22T06:34:10.467Z,11.17
2022-10-22T06:36:37.364Z,11.19
2022-10-22T06:39:05.055Z,11.18
2022-10-22T06:41:31.964Z,11.15
2022-10-22T06:43:58.977Z,11.16
2022-10-22T06:46:26.291Z,11.17
2022-10-22T06:48:56.727Z,11.19
2022-10-22T06:51:24.287Z,11.22
2022-10-22T06:53:51.339Z,11.20
2022-10-22T06:56:20.901Z,11.24
2022-10-22T06:58:52.469Z,11.24
2022-10-22T07:01:21.753Z,11.27
2022-10-22T07:03:51.470Z,11.31
2022-10-22T07:06:19.598Z,11.34
2022-10-22T07:08:46.959Z,11.38
2022-10-22T07:11:16.490Z,11.43
2022-10-22T07:13:44.015Z,11.51
2022-10-22T07:16:11.351Z,11.57
2022-10-22T07:18:39.801Z,11.64
2022-10-22T07:21:08.026Z,11.71
2022-10-22T07:23:35.153Z,11.77
2022-10-22T07:26:02.990Z,11.80
2022-10-22T07:28:30.895Z,11.84
2022-10-22T07:30:58.114Z,11.88
2022-10-22T07:33:25.016Z,11.95
2022-10-22T07:35:51.916Z,11.99
2022-10-22T07:38:18.776Z,12.05
2022-10-22T07:40:45.626Z,12.15
2022-10-22T07:43:12.511Z,12.22
2022-10-22T07:45:39.341Z,12.29
2022-10-22T07:48:06.583Z,12.35
2022-10-22T07:50:33.972Z,12.44
2022-10-22T07:53:00.939Z,12.58
2022-10-22T07:55:27.814Z,12.69
2022-10-22T07:57:54.722Z,12.77
2022-10-22T08:00:24.549Z,12.81
2022-10-22T08:02:52.732Z,12.86
2022-10-22T08:05:19.763Z,12.93
2022-10-22T08:07:46.664Z,12.98
2022-10-22T08:10:13.717Z,13.04
2022-10-22T08:12:41.658Z,13.09
2022-10-22T08:15:10.000Z,13.11
2022-10-22T08:17:37.118Z,13.17
2022-10-22T08:20:04.694Z,13.25
2022-10-22T08:22:31.547Z,13.28
2022-10-22T08:24:59.289Z,13.31
2022-10-22T08:27:26.859Z,13.35
2022-10-22T08:29:53.701Z,13.37
2022-10-22T08:32:20.572Z,13.41
2022-10-22T08:34:47.507Z,13.42
2022-10-22T08:37:14.591Z,13.45
2022-10-22T08:39:41.697Z,13.47
2022-10-22T08:42:40.100Z,13.54
2022-10-22T08:45:12.403Z,13.62
2022-10-22T08:48:16.510Z,13.69
2022-10-22T08:50:49.959Z,13.75
2022-10-22T08:53:22.544Z,13.78
2022-10-22T08:55:53.589Z,13.81
2022-10-22T08:58:33.536Z,13.82
2022-10-22T09:01:10.058Z,13.83
2022-10-22T09:03:41.722Z,13.83
2022-10-22T09:06:16.377Z,13.86
2022-10-22T09:08:45.860Z,13.87
2022-10-22T09:11:12.732Z,13.88
2022-10-22T09:13:45.170Z,13.95
2022-10-22T09:16:15.022Z,14.02
2022-10-22T09:19:05.219Z,14.08
2022-10-22T09:22:04.573Z,14.17
2022-10-22T09:24:39.245Z,14.24
2022-10-22T09:27:32.574Z,14.27
2022-10-22T09:30:01.945Z,14.37
2022-10-22T09:32:29.322Z,14.48
2022-10-22T09:34:58.237Z,14.54
2022-10-22T09:37:30.293Z,14.70
2022-10-22T09:39:59.178Z,14.86
2022-10-22T09:42:26.026Z,14.93
2022-10-22T09:44:59.042Z,14.92
2022-10-22T09:48:01.884Z,14.88
2022-10-22T09:50:29.322Z,14.88
2022-10-22T09:53:13.120Z,15.00
2022-10-22T09:55:42.248Z,15.12
2022-10-22T09:58:12.416Z,15.13
2022-10-22T10:00:41.107Z,15.20
2022-10-22T10:03:18.375Z,15.26
2022-10-22T10:05:49.579Z,15.21
2022-10-22T10:08:17.883Z,15.21
2022-10-22T10:11:10.823Z,15.25
2022-10-22T10:14:01.258Z,15.29
2022-10-22T10:16:43.589Z,15.40
2022-10-22T10:19:22.037Z,15.51
2022-10-22T10:22:05.728Z,15.74
2022-10-22T10:24:38.549Z,15.86
2022-10-22T10:27:26.080Z,15.92
2022-10-22T10:30:05.764Z,15.99
2022-10-22T10:32:32.619Z,15.94
2022-10-22T10:35:17.470Z,16.00
2022-10-22T10:37:54.240Z,16.21
2022-10-22T10:40:48.789Z,16.35
2022-10-22T10:43:18.673Z,16.28
2022-10-22T10:45:57.594Z,16.28
2022-10-22T10:48:46.087Z,16.32
2022-10-22T10:51:37.149Z,16.30
2022-10-22T10:54:12.517Z,16.35
2022-10-22T10:56:52.209Z,16.43
2022-10-22T10:59:19.083Z,16.38
2022-10-22T11:02:10.460Z,16.39
2022-10-22T11:05:04.295Z,16.44
2022-10-22T11:07:40.853Z,16.51
2022-10-22T11:10:12.850Z,16.52
2022-10-22T11:12:46.561Z,16.41
2022-10-22T11:15:35.161Z,16.40
2022-10-22T11:18:14.567Z,16.44
2022-10-22T11:20:50.981Z,16.49
2022-10-22T11:23:25.938Z,16.51
2022-10-22T11:25:53.105Z,16.57
2022-10-22T11:28:35.620Z,16.61
2022-10-22T11:31:09.013Z,16.57
2022-10-22T11:33:54.562Z,16.71
2022-10-22T11:38:56.783Z,16.83
2022-10-22T11:41:30.857Z,16.89
2022-10-22T11:44:05.471Z,17.12
2022-10-22T11:46:53.702Z,17.15
2022-10-22T11:49:42.424Z,17.08
2022-10-22T11:52:28.396Z,16.94
2022-10-22T11:54:58.008Z,16.82
2022-10-22T11:57:39.590Z,16.80
2022-10-22T12:00:31.577Z,17.08
2022-10-22T12:03:41.155Z,17.06
2022-10-22T12:06:15.800Z,17.05
2022-10-22T12:08:47.085Z,17.22
2022-10-22T12:11:34.318Z,17.30
2022-10-22T12:14:20.068Z,17.25
2022-10-22T12:16:57.256Z,17.13
2022-10-22T12:19:29.427Z,17.01
2022-10-22T12:22:02.253Z,16.92
2022-10-22T12:24:37.228Z,16.84
2022-10-22T12:27:04.339Z,16.91
2022-10-22T12:29:32.957Z,16.90
2022-10-22T12:32:04.884Z,16.86
2022-10-22T12:34:31.846Z,16.85
2022-10-22T12:36:58.839Z,16.86
2022-10-22T12:39:27.504Z,16.97
2022-10-22T12:41:55.590Z,17.41
2022-10-22T12:44:22.447Z,17.69
2022-10-22T12:46:53.184Z,17.86
2022-10-22T12:49:30.308Z,18.07
2022-10-22T12:52:03.297Z,18.26
2022-10-22T12:54:32.254Z,18.41
2022-10-22T12:57:00.594Z,18.32
2022-10-22T12:59:33.648Z,18.31
2022-10-22T13:02:00.949Z,18.09
2022-10-22T13:04:36.653Z,17.96
2022-10-22T13:07:12.478Z,17.82
2022-10-22T13:09:48.521Z,17.90
2022-10-22T13:12:18.852Z,18.03
2022-10-22T13:14:47.216Z,18.15
2022-10-22T13:17:38.155Z,18.17
2022-10-22T13:20:19.540Z,18.29
2022-10-22T13:23:16.711Z,18.52
2022-10-22T13:25:43.636Z,18.51
2022-10-22T13:28:10.525Z,18.47
2022-10-22T13:30:39.493Z,18.51
2022-10-22T13:33:28.327Z,18.51
2022-10-22T13:35:57.124Z,18.42
2022-10-22T13:38:26.722Z,18.39
2022-10-22T13:40:54.104Z,18.34
2022-10-22T13:43:21.265Z,18.25
2022-10-22T13:45:52.171Z,18.17
2022-10-22T13:48:22.306Z,18.04
2022-10-22T13:50:50.310Z,17.70
2022-10-22T13:53:20.968Z,17.52
2022-10-22T13:55:48.143Z,17.46
2022-10-22T13:58:20.355Z,17.27
2022-10-22T14:00:51.584Z,17.12
2022-10-22T14:03:21.983Z,17.06
2022-10-22T14:05:49.427Z,16.98
2022-10-22T14:08:20.295Z,16.94
2022-10-22T14:10:47.670Z,16.96
2022-10-22T14:13:17.370Z,17.02
2022-10-22T14:15:47.019Z,17.08
2022-10-22T14:18:24.277Z,17.22
2022-10-22T14:20:54.063Z,17.28
2022-10-22T14:23:23.401Z,17.34
2022-10-22T14:25:54.023Z,17.41
2022-10-22T14:28:20.947Z,17.32
2022-10-22T14:30:48.425Z,17.19
2022-10-22T14:33:31.404Z,17.10
2022-10-22T14:36:00.445Z,17.05
2022-10-22T14:38:28.338Z,17.03
2022-10-22T14:40:55.840Z,16.90
2022-10-22T14:43:25.510Z,16.77
2022-10-22T14:45:52.626Z,16.73
2022-10-22T14:50:47.703Z,16.69
2022-10-22T14:53:16.794Z,16.66
2022-10-22T14:55:45.078Z,16.62
2022-10-22T14:58:12.639Z,16.58
2022-10-22T15:00:43.734Z,16.58
2022-10-22T15:03:11.023Z,16.56
2022-10-22T15:05:44.720Z,16.57
2022-10-22T15:08:13.814Z,16.55
2022-10-22T15:10:40.915Z,16.50
2022-10-22T15:13:08.259Z,16.42
2022-10-22T15:15:39.514Z,16.38
2022-10-22T15:18:07.544Z,16.35
2022-10-22T15:20:34.637Z,16.30
2022-10-22T15:23:01.610Z,16.26
2022-10-22T15:25:28.939Z,16.25
2022-10-22T15:28:00.801Z,16.23
2022-10-22T15:30:31.725Z,16.18
2022-10-22T15:32:58.685Z,16.16
2022-10-22T15:35:28.614Z,16.11
2022-10-22T15:37:55.647Z,16.07
2022-10-22T15:40:22.514Z,16.02
2022-10-22T15:42:49.553Z,15.96
2022-10-22T15:45:16.819Z,15.91
2022-10-22T15:47:48.364Z,15.83
2022-10-22T15:50:15.708Z,15.78
2022-10-22T15:52:42.746Z,15.71
2022-10-22T15:55:10.801Z,15.63
2022-10-22T15:57:39.339Z,15.55
2022-10-22T16:00:07.829Z,15.50
2022-10-22T16:02:34.884Z,15.39
2022-10-22T16:05:01.910Z,15.30
2022-10-22T16:07:30.133Z,15.21
2022-10-22T16:10:01.748Z,15.14
2022-10-22T16:12:28.875Z,15.05
2022-10-22T16:14:55.938Z,14.97
2022-10-22T16:17:23.491Z,14.89
2022-10-22T16:19:50.464Z,14.81
2022-10-22T16:22:17.407Z,14.71
2022-10-22T16:24:44.377Z,14.63
2022-10-22T16:27:11.361Z,14.53
2022-10-22T16:29:42.209Z,14.47
2022-10-22T16:32:09.229Z,14.40
2022-10-22T16:34:36.183Z,14.32
2022-10-22T16:37:03.214Z,14.21
2022-10-22T16:39:30.148Z,14.12
2022-10-22T16:41:57.147Z,14.03
2022-10-22T16:44:24.240Z,13.95
2022-10-22T16:46:51.190Z,13.88
2022-10-22T16:49:18.178Z,13.82
2022-10-22T16:51:45.161Z,13.76
2022-10-22T16:54:13.670Z,13.72
2022-10-22T16:56:40.665Z,13.66
2022-10-22T16:59:07.911Z,13.62
2022-10-22T17:01:39.481Z,13.56
2022-10-22T17:04:07.767Z,13.51
2022-10-22T17:06:34.724Z,13.44
2022-10-22T17:09:01.728Z,13.37
2022-10-22T17:11:35.207Z,13.30
2022-10-22T17:14:04.138Z,13.22
2022-10-22T17:16:31.006Z,13.15
2022-10-22T17:18:58.473Z,13.10
2022-10-22T17:21:25.480Z,13.04
2022-10-22T17:23:58.771Z,12.98
2022-10-22T17:26:27.028Z,12.94
2022-10-22T17:28:54.977Z,12.89
2022-10-22T17:31:27.979Z,12.80
2022-10-22T17:33:56.251Z,12.76
2022-10-22T17:36:24.824Z,12.68
2022-10-22T17:38:57.184Z,12.62
2022-10-22T17:41:27.182Z,12.57
2022-10-22T17:43:55.537Z,12.52
2022-10-22T17:46:27.912Z,12.47
2022-10-22T17:49:03.950Z,12.43
2022-10-22T17:51:31.927Z,12.39
2022-10-22T17:53:59.275Z,12.33
2022-10-22T17:56:30.163Z,12.29
2022-10-22T17:58:57.534Z,12.24
2022-10-22T18:01:28.999Z,12.19
2022-10-22T18:03:59.990Z,12.14
2022-10-22T18:06:27.000Z,12.11
2022-10-22T18:11:28.047Z,12.01
2022-10-22T18:13:56.956Z,11.97
2022-10-22T18:16:24.015Z,11.93
2022-10-22T18:18:55.884Z,11.91
2022-10-22T18:21:25.587Z,11.88
2022-10-22T18:23:52.889Z,11.85
2022-10-22T18:26:22.849Z,11.82
2022-10-22T18:28:52.994Z,11.78
2022-10-22T18:31:21.923Z,11.77
2022-10-22T18:33:49.351Z,11.71
2022-10-22T18:36:21.875Z,11.69
2022-10-22T18:38:54.113Z,11.67
2022-10-22T18:41:21.559Z,11.63
2022-10-22T18:43:53.065Z,11.63
2022-10-22T18:46:20.876Z,11.60
2022-10-22T18:48:47.812Z,11.57
2022-10-22T18:51:15.473Z,11.56
2022-10-22T18:53:53.615Z,11.55
2022-10-22T18:56:29.581Z,11.53
2022-10-22T18:58:56.554Z,11.50
2022-10-22T19:01:25.823Z,11.48
2022-10-22T19:03:52.851Z,11.47
2022-10-22T19:06:27.414Z,11.42
2022-10-22T19:08:54.349Z,11.38
2022-10-22T20:33:33.436Z,10.24
2022-10-22T20:36:13.214Z,10.22
2022-10-22T20:38:40.168Z,10.22
2022-10-22T20:41:11.007Z,10.20
2022-10-22T20:43:38.078Z,10.21
2022-10-22T20:46:05.242Z,10.22
2022-10-22T20:48:34.522Z,10.23
2022-10-22T20:51:01.881Z,10.24
2022-10-22T20:53:29.058Z,10.25
2022-10-22T20:55:59.158Z,10.26
2022-10-22T20:58:27.545Z,10.27
2022-10-22T21:00:55.355Z,10.26
2022-10-22T21:03:23.070Z,10.26
2022-10-22T21:05:50.146Z,10.27
2022-10-22T21:08:17.875Z,10.27
2022-10-22T21:10:49.805Z,10.28
2022-10-22T21:13:19.834Z,10.28
2022-10-22T21:15:46.871Z,10.25
2022-10-22T21:18:13.907Z,10.26
2022-10-22T21:20:41.374Z,10.26
2022-10-22T21:23:09.095Z,10.26
2022-10-22T21:25:39.540Z,10.25
2022-10-22T21:28:08.925Z,10.26
2022-10-22T21:30:35.701Z,10.28
2022-10-22T21:33:02.634Z,10.28
2022-10-22T21:35:29.677Z,10.28
2022-10-22T21:37:56.509Z,10.29
2022-10-22T21:40:23.516Z,10.31
2022-10-22T21:42:50.685Z,10.29
2022-10-22T21:45:22.033Z,10.30
2022-10-22T21:47:49.256Z,10.30
2022-10-22T21:50:16.119Z,10.29
2022-10-22T21:52:43.072Z,10.30
2022-10-22T21:55:10.211Z,10.29
2022-10-22T21:57:37.016Z,10.28
2022-10-22T22:00:07.456Z,10.29
2022-10-22T22:02:34.678Z,10.28
2022-10-22T22:05:01.621Z,10.29
2022-10-22T22:07:28.649Z,10.29
2022-10-22T22:09:55.611Z,10.29
2022-10-22T22:12:22.519Z,10.29
2022-10-22T22:14:49.495Z,10.29
2022-10-22T22:17:16.805Z,10.29
2022-10-22T22:19:43.691Z,10.30
2022-10-22T22:22:10.809Z,10.31
2022-10-22T22:24:39.919Z,10.30
2022-10-22T22:27:07.323Z,10.32
2022-10-22T22:29:34.507Z,10.34
2022-10-22T22:32:01.309Z,10.33
2022-10-22T22:34:28.188Z,10.35
2022-10-22T22:36:54.967Z,10.36
2022-10-22T22:39:25.516Z,10.36
2022-10-22T22:41:52.417Z,10.38
2022-10-22T22:44:19.343Z,10.39
2022-10-22T22:46:46.213Z,10.40
2022-10-22T22:49:14.066Z,10.40
2022-10-22T22:51:41.214Z,10.44
2022-10-22T22:54:07.994Z,10.44
2022-10-22T22:56:34.844Z,10.43
2022-10-22T22:59:02.038Z,10.45
2022-10-22T23:01:36.676Z,10.46
2022-10-22T23:04:16.499Z,10.45
2022-10-22T23:06:43.344Z,10.46
2022-10-22T23:09:12.281Z,10.47
2022-10-22T23:11:39.796Z,10.49
2022-10-22T23:14:08.093Z,10.48
2022-10-22T23:16:37.483Z,10.49
2022-10-22T23:19:05.456Z,10.48
2022-10-22T23:21:35.253Z,10.47
2022-10-22T23:24:05.825Z,10.46
2022-10-22T23:26:39.705Z,10.42
2022-10-22T23:29:14.916Z,10.42
2022-10-22T23:31:42.893Z,10.42
2022-10-22T23:34:11.612Z,10.42
2022-10-22T23:36:38.906Z,10.39
2022-10-22T23:39:10.184Z,10.37
2022-10-22T23:41:37.491Z,10.36
2022-10-22T23:44:05.214Z,10.35
2022-10-22T23:46:33.416Z,10.35
2022-10-22T23:49:01.135Z,10.32
2022-10-22T23:51:28.446Z,10.30
2022-10-22T23:53:58.171Z,10.29
2022-10-22T23:56:25.353Z,10.27
2022-10-22T23:58:52.865Z,10.26
